createdAt,value
2019-06-07T00:01:53.194Z,1.73
2019-06-07T00:04:22.902Z,2.07
2019-06-07T00:06:52.857Z,1.53
2019-06-07T00:09:22.947Z,2.40
2019-06-07T00:11:53.065Z,1.80
2019-06-07T00:14:22.860Z,1.43
2019-06-07T00:16:52.518Z,1.73
2019-06-07T00:19:22.191Z,1.77
2019-06-07T00:22:15.768Z,2.03
2019-06-07T00:24:23.571Z,1.57
2019-06-07T00:26:59.033Z,2.40
2019-06-07T00:29:25.016Z,2.10
2019-06-07T00:31:54.737Z,2.63
2019-06-07T00:34:25.093Z,2.27
2019-06-07T00:36:55.264Z,2.17
2019-06-07T00:39:26.058Z,2.00
2019-06-07T00:41:56.017Z,2.27
2019-06-07T00:44:25.801Z,2.43
2019-06-07T00:46:55.775Z,2.40
2019-06-07T00:49:40.085Z,2.47
2019-06-07T00:51:56.902Z,2.73
2019-06-07T00:54:26.632Z,3.30
2019-06-07T00:56:56.245Z,2.50
2019-06-07T00:59:29.637Z,2.67
2019-06-07T01:02:18.549Z,2.90
2019-06-07T01:11:08.075Z,2.77
2019-06-07T01:17:06.072Z,2.73
2019-06-07T01:19:46.934Z,2.60
2019-06-07T01:25:44.924Z,2.07
2019-06-07T01:31:44.164Z,2.17
2019-06-07T01:34:26.905Z,1.77
2019-06-07T01:37:08.416Z,2.20
2019-06-07T01:39:50.007Z,2.00
2019-06-07T01:42:31.791Z,2.03
2019-06-07T01:45:14.500Z,2.23
2019-06-07T01:47:56.064Z,1.60
2019-06-07T01:50:37.672Z,1.80
2019-06-07T01:53:23.363Z,1.60
2019-06-07T01:56:02.486Z,1.70
2019-06-07T01:58:44.192Z,1.63
2019-06-07T02:01:29.048Z,1.83
2019-06-07T02:04:08.593Z,1.93
2019-06-07T02:06:48.601Z,2.00
2019-06-07T02:09:18.763Z,1.80
2019-06-07T02:12:25.045Z,1.60
2019-06-07T02:14:58.506Z,1.87
2019-06-07T02:23:37.152Z,1.93
2019-06-07T02:29:25.499Z,2.33
2019-06-07T02:41:33.617Z,1.80
2019-06-07T02:44:17.273Z,2.17
2019-06-07T02:50:28.295Z,1.90
2019-06-07T02:59:46.862Z,2.33
2019-06-07T03:02:16.032Z,2.10
2019-06-07T03:08:26.005Z,1.77
2019-06-07T03:11:37.268Z,1.80
2019-06-07T03:14:18.337Z,2.10
2019-06-07T03:20:03.714Z,2.10
2019-06-07T03:22:45.358Z,1.90
2019-06-07T03:25:54.684Z,2.20
2019-06-07T03:28:27.291Z,1.90
2019-06-07T03:31:17.049Z,2.60
2019-06-07T03:34:05.685Z,2.00
2019-06-07T03:36:54.723Z,2.20
2019-06-07T03:39:25.284Z,1.83
2019-06-07T03:42:05.920Z,2.03
2019-06-07T03:44:28.666Z,2.00
2019-06-07T03:46:58.030Z,1.90
2019-06-07T03:49:28.615Z,1.80
2019-06-07T03:51:59.116Z,1.73
2019-06-07T03:54:29.541Z,2.00
2019-06-07T03:56:59.274Z,2.83
2019-06-07T03:59:31.244Z,2.90
2019-06-07T04:02:00.372Z,2.37
2019-06-07T04:04:30.036Z,2.03
2019-06-07T04:07:01.192Z,2.20
2019-06-07T04:09:35.042Z,2.33
2019-06-07T04:12:02.697Z,2.37
2019-06-07T04:14:32.863Z,1.80
2019-06-07T04:17:02.703Z,1.90
2019-06-07T04:19:38.251Z,2.33
2019-06-07T04:22:03.836Z,2.50
2019-06-07T04:24:38.359Z,2.47
2019-06-07T04:27:05.462Z,2.17
2019-06-07T04:29:56.897Z,2.20
2019-06-07T04:32:06.477Z,2.00
2019-06-07T04:34:40.139Z,2.30
2019-06-07T04:37:09.518Z,2.27
2019-06-07T04:39:44.673Z,2.20
2019-06-07T04:42:11.688Z,2.53
2019-06-07T04:44:42.781Z,2.47
2019-06-07T04:47:15.106Z,2.53
2019-06-07T04:49:47.663Z,2.03
2019-06-07T04:52:17.305Z,2.33
2019-06-07T04:54:47.078Z,2.00
2019-06-07T04:57:16.727Z,2.47
2019-06-07T05:00:12.786Z,2.20
2019-06-07T05:02:18.112Z,2.57
2019-06-07T05:04:47.862Z,1.90
2019-06-07T05:07:17.525Z,2.10
2019-06-07T05:09:51.016Z,2.10
2019-06-07T05:12:20.765Z,1.93
2019-06-07T05:14:50.816Z,2.10
2019-06-07T05:17:20.974Z,2.40
2019-06-07T05:19:51.037Z,2.67
2019-06-07T05:22:22.064Z,2.33
2019-06-07T05:24:52.292Z,2.20
2019-06-07T05:27:22.388Z,2.57
2019-06-07T05:30:13.299Z,2.43
2019-06-07T05:32:23.737Z,2.23
2019-06-07T05:34:53.393Z,2.83
2019-06-07T05:37:23.136Z,2.10
2019-06-07T05:39:53.064Z,2.37
2019-06-07T05:42:22.770Z,2.30
2019-06-07T05:44:52.597Z,2.00
2019-06-07T05:47:22.689Z,2.00
2019-06-07T05:49:52.521Z,2.10
2019-06-07T05:52:22.294Z,2.40
2019-06-07T05:54:52.027Z,1.60
2019-06-07T05:57:21.683Z,1.80
2019-06-07T05:59:51.388Z,1.53
2019-06-07T06:02:25.102Z,2.40
2019-06-07T06:04:54.904Z,1.70
2019-06-07T06:07:24.549Z,1.50
2019-06-07T06:12:39.113Z,1.33
2019-06-07T06:15:06.557Z,1.23
2019-06-07T06:17:57.003Z,1.10
2019-06-07T06:20:32.800Z,0.77
2019-06-07T06:22:58.273Z,0.80
2019-06-07T06:25:32.378Z,1.10
2019-06-07T06:31:00.596Z,2.07
2019-06-07T06:33:34.502Z,0.87
2019-06-07T06:36:21.250Z,0.70
2019-06-07T06:39:10.904Z,1.50
2019-06-07T06:42:03.745Z,0.90
2019-06-07T06:44:31.126Z,0.70
2019-06-07T06:47:01.160Z,0.93
2019-06-07T06:52:13.120Z,2.30
2019-06-07T06:54:48.755Z,1.00
2019-06-07T06:57:19.710Z,0.83
2019-06-07T06:59:49.635Z,0.90
2019-06-07T07:02:17.318Z,1.00
2019-06-07T07:05:07.379Z,0.70
2019-06-07T07:07:37.269Z,1.27
2019-06-07T07:10:08.028Z,0.80
2019-06-07T07:12:37.743Z,0.70
2019-06-07T07:15:28.565Z,0.60
2019-06-07T07:18:07.767Z,1.00
2019-06-07T07:20:30.030Z,0.80
2019-06-07T07:26:18.354Z,0.80
2019-06-07T07:28:51.851Z,0.67
2019-06-07T07:31:19.803Z,0.83
2019-06-07T07:36:38.167Z,0.70
2019-06-07T07:39:00.444Z,0.60
2019-06-07T07:41:24.108Z,0.60
2019-06-07T07:44:05.475Z,0.70
2019-06-07T07:46:29.577Z,0.83
2019-06-07T07:48:56.656Z,1.03
2019-06-07T07:51:26.352Z,0.80
2019-06-07T07:54:09.078Z,0.80
2019-06-07T07:56:27.423Z,0.87
2019-06-07T07:59:02.061Z,1.77
2019-06-07T08:01:30.904Z,1.60
2019-06-07T08:04:00.753Z,1.27
2019-06-07T08:06:30.426Z,0.70
2019-06-07T08:09:00.343Z,0.60
2019-06-07T08:14:04.525Z,0.80
2019-06-07T08:16:34.176Z,0.60
2019-06-07T08:19:23.243Z,0.67
2019-06-07T08:21:53.102Z,0.70
2019-06-07T08:24:24.247Z,0.93
2019-06-07T08:29:45.074Z,1.00
2019-06-07T08:32:07.682Z,0.90
2019-06-07T08:34:37.428Z,0.93
2019-06-07T08:37:07.244Z,1.17
2019-06-07T08:42:25.166Z,0.90
2019-06-07T08:45:10.835Z,0.90
2019-06-07T08:47:40.722Z,0.93
2019-06-07T08:50:12.596Z,0.70
2019-06-07T08:52:43.787Z,0.70
2019-06-07T08:55:14.740Z,0.60
2019-06-07T08:57:44.611Z,0.60
2019-06-07T09:00:48.523Z,0.50
2019-06-07T09:03:07.508Z,0.53
2019-06-07T09:05:36.979Z,0.50
2019-06-07T09:08:28.278Z,0.60
2019-06-07T09:10:38.610Z,0.60
2019-06-07T09:13:11.637Z,0.50
2019-06-07T09:18:42.187Z,0.60
2019-06-07T09:21:19.112Z,0.50
2019-06-07T09:23:48.885Z,0.50
2019-06-07T09:26:19.408Z,0.60
2019-06-07T09:28:49.140Z,0.60
2019-06-07T09:31:18.903Z,0.60
2019-06-07T09:34:14.469Z,0.50
2019-06-07T09:36:40.130Z,0.63
2019-06-07T09:39:12.626Z,0.50
2019-06-07T09:41:49.372Z,0.50
2019-06-07T09:44:23.877Z,0.60
2019-06-07T09:46:45.485Z,0.60
2019-06-07T09:49:34.318Z,0.50
2019-06-07T09:52:09.089Z,0.50
2019-06-07T09:55:06.133Z,0.60
2019-06-07T09:57:16.390Z,0.60
2019-06-07T09:59:38.957Z,0.80
2019-06-07T10:02:27.719Z,0.70
2019-06-07T10:04:59.897Z,0.70
2019-06-07T10:07:32.188Z,0.60
2019-06-07T10:10:25.600Z,0.63
2019-06-07T10:12:34.128Z,0.60
2019-06-07T10:15:05.376Z,0.60
2019-06-07T10:17:35.418Z,0.60
2019-06-07T10:20:05.795Z,0.70
2019-06-07T10:22:35.550Z,0.50
2019-06-07T10:28:33.594Z,0.67
2019-06-07T10:31:04.497Z,0.80
2019-06-07T10:33:34.254Z,0.60
2019-06-07T10:36:04.485Z,0.70
2019-06-07T10:38:34.266Z,0.60
2019-06-07T10:41:04.751Z,0.67
2019-06-07T10:43:35.635Z,0.70
2019-06-07T10:46:05.691Z,0.70
2019-06-07T10:48:35.613Z,0.70
2019-06-07T10:51:06.177Z,0.60
2019-06-07T10:53:37.212Z,0.80
2019-06-07T10:59:51.041Z,0.63
2019-06-07T11:25:22.697Z,0.70
2019-06-07T11:28:30.299Z,0.63
2019-06-07T11:34:28.437Z,0.97
2019-06-07T11:36:58.448Z,0.80
2019-06-07T11:39:28.142Z,0.80
2019-06-07T11:45:29.407Z,0.67
2019-06-07T11:48:11.369Z,0.60
2019-06-07T11:50:52.836Z,0.70
2019-06-07T11:53:34.451Z,0.67
2019-06-07T11:56:16.269Z,0.70
2019-06-07T11:58:57.952Z,0.70
2019-06-07T12:01:27.794Z,0.90
2019-06-07T12:03:58.878Z,0.90
2019-06-07T12:06:29.124Z,0.90
2019-06-07T12:08:58.812Z,0.97
2019-06-07T12:11:28.565Z,0.97
2019-06-07T12:13:58.743Z,0.90
2019-06-07T12:16:29.374Z,0.80
2019-06-07T12:21:58.556Z,0.87
2019-06-07T12:24:28.600Z,0.80
2019-06-07T12:26:58.295Z,0.57
2019-06-07T12:29:27.927Z,0.80
2019-06-07T12:31:57.902Z,0.80
2019-06-07T12:34:29.012Z,0.90
2019-06-07T12:36:58.815Z,0.60
2019-06-07T12:39:48.574Z,0.80
2019-06-07T12:42:18.521Z,0.80
2019-06-07T12:44:48.279Z,0.83
2019-06-07T12:47:18.912Z,0.70
2019-06-07T12:49:49.392Z,0.60
2019-06-07T12:52:20.092Z,1.27
2019-06-07T12:54:50.818Z,0.70
2019-06-07T12:57:22.049Z,0.70
2019-06-07T12:59:51.861Z,0.87
2019-06-07T13:02:25.402Z,1.10
2019-06-07T13:04:55.840Z,0.63
2019-06-07T13:07:44.902Z,0.70
2019-06-07T13:13:05.668Z,0.70
2019-06-07T13:15:35.370Z,0.70
2019-06-07T13:18:05.101Z,0.90
2019-06-07T13:20:34.883Z,0.83
2019-06-07T13:24:51.654Z,0.73
2019-06-07T13:26:50.083Z,0.80
2019-06-07T13:29:22.659Z,0.70
2019-06-07T13:31:56.557Z,0.93
2019-06-07T13:34:28.499Z,0.80
2019-06-07T13:37:25.485Z,0.80
2019-06-07T13:40:39.205Z,0.80
2019-06-07T13:44:04.289Z,0.87
2019-06-07T13:50:28.246Z,0.90
2019-06-07T13:53:35.098Z,0.70
2019-06-07T13:55:53.154Z,0.80
2019-06-07T13:58:29.123Z,0.80
2019-06-07T14:01:16.332Z,0.93
2019-06-07T14:07:10.611Z,1.00
2019-06-07T14:09:41.692Z,0.70
2019-06-07T14:12:11.685Z,0.70
2019-06-07T14:14:41.752Z,0.70
2019-06-07T14:17:11.449Z,0.83
2019-06-07T14:20:00.304Z,0.80
2019-06-07T14:28:19.515Z,0.90
2019-06-07T14:30:49.699Z,1.07
2019-06-07T14:33:23.038Z,0.70
2019-06-07T14:35:52.735Z,0.90
2019-06-07T14:38:23.055Z,0.90
2019-06-07T14:40:53.293Z,0.80
2019-06-07T14:43:42.755Z,1.00
2019-06-07T14:46:32.150Z,0.80
2019-06-07T14:52:21.541Z,0.60
2019-06-07T14:54:51.359Z,0.90
2019-06-07T14:57:21.394Z,0.80
2019-06-07T14:59:52.075Z,1.13
2019-06-07T15:02:21.942Z,0.97
2019-06-07T15:04:51.726Z,0.70
2019-06-07T15:07:22.069Z,0.60
2019-06-07T15:09:51.889Z,0.60
2019-06-07T15:12:25.465Z,0.50
2019-06-07T15:14:54.603Z,0.40
2019-06-07T15:17:24.325Z,0.50
2019-06-07T15:19:54.202Z,0.30
2019-06-07T15:22:24.040Z,0.63
2019-06-07T15:24:54.023Z,0.40
2019-06-07T15:27:23.798Z,0.33
2019-06-07T15:29:53.792Z,0.40
2019-06-07T15:32:54.574Z,0.40
2019-06-07T15:35:14.864Z,0.80
2019-06-07T15:37:44.860Z,0.50
2019-06-07T15:40:15.069Z,0.40
2019-06-07T15:42:52.891Z,0.60
2019-06-07T15:45:19.584Z,0.20
2019-06-07T15:47:49.317Z,0.40
2019-06-07T15:50:19.442Z,0.30
2019-06-07T15:52:49.172Z,0.30
2019-06-07T15:55:20.910Z,0.30
2019-06-07T15:57:50.624Z,0.30
2019-06-07T16:00:21.238Z,0.37
2019-06-07T16:02:52.168Z,0.40
2019-06-07T16:05:22.347Z,0.40
2019-06-07T16:07:52.009Z,0.57
2019-06-07T16:10:21.938Z,0.30
2019-06-07T16:13:00.298Z,0.60
2019-06-07T16:15:23.774Z,0.70
2019-06-07T16:17:53.450Z,0.30
2019-06-07T16:20:23.295Z,0.43
2019-06-07T16:22:53.297Z,0.30
2019-06-07T16:25:24.190Z,0.30
2019-06-07T16:27:56.235Z,0.30
2019-06-07T16:30:26.356Z,0.50
2019-06-07T16:32:56.063Z,0.30
2019-06-07T16:35:25.861Z,0.90
2019-06-07T16:37:55.646Z,0.60
2019-06-07T16:40:25.693Z,0.60
2019-06-07T16:43:16.719Z,0.40
2019-06-07T16:45:34.447Z,0.50
2019-06-07T16:48:07.483Z,0.30
2019-06-07T16:50:40.942Z,0.30
2019-06-07T16:53:12.496Z,1.00
2019-06-07T16:55:42.715Z,0.40
2019-06-07T16:58:12.498Z,0.80
2019-06-07T17:00:42.444Z,0.30
2019-06-07T17:03:12.149Z,0.40
2019-06-07T17:05:45.568Z,0.30
2019-06-07T17:08:13.481Z,0.40
2019-06-07T17:10:44.229Z,0.30
2019-06-07T17:13:14.007Z,0.30
2019-06-07T17:15:44.908Z,0.53
2019-06-07T17:18:14.656Z,0.40
2019-06-07T17:20:45.297Z,1.60
2019-06-07T17:23:15.242Z,0.50
2019-06-07T17:25:47.784Z,0.40
2019-06-07T17:28:17.680Z,0.30
2019-06-07T17:30:48.324Z,0.43
2019-06-07T17:33:18.410Z,0.30
2019-06-07T17:35:48.696Z,0.30
2019-06-07T17:38:19.011Z,0.37
2019-06-07T17:40:49.312Z,0.20
2019-06-07T17:43:19.018Z,0.40
2019-06-07T17:45:49.423Z,0.30
2019-06-07T17:48:19.260Z,0.40
2019-06-07T17:50:49.972Z,0.50
2019-06-07T17:53:19.778Z,0.30
2019-06-07T17:55:50.367Z,0.40
2019-06-07T17:58:20.436Z,0.43
2019-06-07T18:00:52.869Z,0.30
2019-06-07T18:03:25.177Z,0.50
2019-06-07T18:05:55.177Z,0.40
2019-06-07T18:08:26.045Z,0.30
2019-06-07T18:11:02.107Z,0.50
2019-06-07T18:13:32.259Z,0.43
2019-06-07T18:16:02.437Z,0.70
2019-06-07T18:18:32.609Z,0.80
2019-06-07T18:21:02.274Z,0.50
2019-06-07T18:23:38.261Z,0.30
2019-06-07T18:26:09.751Z,0.40
2019-06-07T18:28:39.653Z,0.60
2019-06-07T18:31:10.241Z,0.40
2019-06-07T18:33:39.976Z,0.60
2019-06-07T18:36:10.200Z,0.40
2019-06-07T18:38:41.313Z,0.40
2019-06-07T18:41:13.254Z,0.30
2019-06-07T18:43:44.958Z,0.60
2019-06-07T18:46:15.094Z,0.40
2019-06-07T18:48:44.749Z,0.50
2019-06-07T18:51:17.565Z,0.97
2019-06-07T18:53:47.550Z,2.50
2019-06-07T18:56:17.257Z,0.43
2019-06-07T18:58:47.175Z,1.10
2019-06-07T19:01:19.236Z,0.80
2019-06-07T19:03:50.201Z,0.60
2019-06-07T19:06:21.125Z,0.80
2019-06-07T19:08:54.797Z,0.97
2019-06-07T19:11:22.489Z,1.00
2019-06-07T19:13:53.023Z,1.23
2019-06-07T19:16:22.776Z,0.60
2019-06-07T19:18:53.634Z,2.10
2019-06-07T19:21:23.893Z,1.17
2019-06-07T19:23:53.933Z,0.80
2019-06-07T19:26:24.454Z,0.80
2019-06-07T19:28:56.818Z,0.57
2019-06-07T19:31:26.544Z,1.00
2019-06-07T19:34:01.955Z,0.80
2019-06-07T19:36:31.619Z,0.90
2019-06-07T19:39:02.128Z,0.97
2019-06-07T19:41:32.089Z,1.13
2019-06-07T19:44:02.420Z,1.07
2019-06-07T19:46:32.195Z,1.50
2019-06-07T19:49:03.065Z,0.50
2019-06-07T19:51:32.979Z,0.50
2019-06-07T19:54:06.333Z,0.50
2019-06-07T19:56:36.414Z,0.47
2019-06-07T19:59:06.436Z,0.50
2019-06-07T20:01:37.915Z,0.53
2019-06-07T20:04:07.612Z,0.40
2019-06-07T20:06:37.470Z,0.40
2019-06-07T20:09:15.273Z,0.47
2019-06-07T20:11:47.029Z,0.50
2019-06-07T20:14:17.109Z,0.60
2019-06-07T20:17:05.995Z,0.60
2019-06-07T20:19:56.259Z,0.47
2019-06-07T20:22:45.179Z,0.43
2019-06-07T20:25:34.243Z,0.43
2019-06-07T20:28:05.431Z,0.40
2019-06-07T20:30:35.558Z,0.60
2019-06-07T20:33:06.139Z,0.40
2019-06-07T20:35:36.238Z,0.40
2019-06-07T20:38:06.088Z,0.50
2019-06-07T20:40:38.036Z,0.40
2019-06-07T20:43:08.246Z,0.83
2019-06-07T20:46:03.362Z,0.37
2019-06-07T20:48:32.337Z,0.37
2019-06-07T20:51:02.824Z,0.50
2019-06-07T20:53:32.944Z,0.40
2019-06-07T20:56:02.931Z,0.40
2019-06-07T20:58:52.690Z,0.40
2019-06-07T21:04:25.686Z,0.30
2019-06-07T21:12:36.594Z,0.43
2019-06-07T21:18:19.520Z,0.50
2019-06-07T21:20:47.220Z,0.47
2019-06-07T21:23:17.323Z,0.37
2019-06-07T21:31:33.638Z,0.70
2019-06-07T21:34:22.794Z,0.40
2019-06-07T21:37:12.165Z,0.77
2019-06-07T21:39:42.671Z,0.50
2019-06-07T21:42:32.922Z,0.50
2019-06-07T21:45:05.369Z,0.40
2019-06-07T21:47:37.264Z,0.40
2019-06-07T21:50:08.468Z,0.50
2019-06-07T21:55:41.563Z,0.40
2019-06-07T21:58:11.524Z,0.43
2019-06-07T22:01:31.283Z,0.40
2019-06-07T22:04:19.990Z,0.33
2019-06-07T22:06:51.824Z,0.60
2019-06-07T22:09:32.793Z,0.40
2019-06-07T22:12:04.441Z,0.30
2019-06-07T22:23:49.864Z,0.40
2019-06-07T22:26:19.579Z,0.40
2019-06-07T22:29:27.323Z,0.30
2019-06-07T22:34:32.555Z,0.30
2019-06-07T22:37:16.428Z,0.30
2019-06-07T22:40:24.691Z,0.40
2019-06-07T22:46:03.892Z,0.30
2019-06-07T22:48:33.545Z,0.30
2019-06-07T22:51:09.414Z,0.33
2019-06-07T22:53:42.570Z,0.33
2019-06-07T22:56:24.978Z,0.40
2019-06-07T22:58:54.668Z,0.40
2019-06-07T23:01:24.316Z,0.30
2019-06-07T23:03:54.773Z,0.33
2019-06-07T23:06:24.857Z,0.40
2019-06-07T23:08:54.516Z,0.33
2019-06-07T23:11:24.538Z,0.40
2019-06-07T23:13:55.092Z,0.40
2019-06-07T23:16:24.757Z,0.30
2019-06-07T23:18:54.561Z,0.50
2019-06-07T23:21:24.552Z,0.80
2019-06-07T23:23:54.747Z,0.40
2019-06-07T23:26:24.453Z,0.30
2019-06-07T23:28:54.362Z,0.30
2019-06-07T23:31:24.099Z,0.50
2019-06-07T23:36:55.993Z,0.70
2019-06-07T23:39:25.782Z,0.40
2019-06-07T23:44:56.298Z,0.40
2019-06-07T23:47:26.112Z,0.30
2019-06-07T23:50:15.788Z,0.40
2019-06-07T23:53:05.948Z,0.40
2019-06-07T23:58:26.041Z,0.30
